BHA weather

Bahía Airstrip
Caborca, Sonora, Mexico

Public forecast

Using degrees Celsius for public forecast. Weather courtesy of forecast.io.

METAR (pilot weather report)

Closest report is (Old) Puerto Peñasco Airport, 53.3 nm (98.7 km) NNW. Retrieved UTC (0 seconds ago):

TAF (pilot weather forecast)

Closest forecast is Nogales International Airport, 120.2 nm (222.6 km) ENE. Retrieved 2019/05/24 18:27 UTC (0 seconds ago):

TAF KOLS 241725Z 2418/2518 18006KT P6SM SKC FM242100 24010G16KT P6SM SKC FM250200 24007KT P6SM SKC FM250500 VRB03KT P6SM SKC